createdAt,value
2019-03-06T00:01:58.848Z,57.70
2019-03-06T00:04:28.342Z,65.10
2019-03-06T00:06:57.956Z,62.00
2019-03-06T00:09:27.699Z,73.23
2019-03-06T00:11:57.427Z,68.10
2019-03-06T00:14:27.058Z,82.67
2019-03-06T00:16:56.990Z,81.67
2019-03-06T00:19:26.624Z,81.27
2019-03-06T00:21:56.353Z,81.37
2019-03-06T00:24:26.099Z,68.60
2019-03-06T00:26:55.607Z,64.20
2019-03-06T00:29:25.287Z,58.17
2019-03-06T00:31:54.984Z,65.40
2019-03-06T00:34:24.592Z,55.77
2019-03-06T00:36:54.227Z,52.77
2019-03-06T00:39:23.862Z,46.40
2019-03-06T00:41:53.375Z,42.70
2019-03-06T00:44:23.003Z,41.67
2019-03-06T00:46:52.628Z,44.10
2019-03-06T00:49:22.103Z,48.42
2019-03-06T00:51:51.683Z,39.10
2019-03-06T00:54:21.415Z,42.33
2019-03-06T00:56:51.065Z,40.43
2019-03-06T00:59:21.656Z,43.00
2019-03-06T01:01:51.318Z,42.38
2019-03-06T01:04:21.263Z,46.45
2019-03-06T01:06:50.998Z,62.48
2019-03-06T01:09:20.607Z,58.65
2019-03-06T01:11:50.236Z,49.60
2019-03-06T01:14:19.765Z,49.20
2019-03-06T01:16:49.503Z,48.55
2019-03-06T01:19:19.127Z,46.70
2019-03-06T01:21:48.850Z,39.63
2019-03-06T01:24:18.581Z,41.98
2019-03-06T01:26:48.413Z,40.85
2019-03-06T01:29:18.251Z,50.73
2019-03-06T01:31:47.912Z,42.10
2019-03-06T01:34:31.319Z,43.37
2019-03-06T01:37:04.628Z,36.05
2019-03-06T01:39:35.987Z,40.63
2019-03-06T01:42:12.775Z,45.67
2019-03-06T01:44:44.036Z,46.42
2019-03-06T01:47:13.764Z,46.08
2019-03-06T01:49:43.507Z,39.58
2019-03-06T01:52:13.131Z,46.00
2019-03-06T01:54:43.876Z,40.88
2019-03-06T01:57:13.411Z,44.93
2019-03-06T01:59:43.139Z,44.13
2019-03-06T02:02:12.768Z,34.27
2019-03-06T02:04:42.395Z,34.38
2019-03-06T02:07:12.533Z,28.87
2019-03-06T02:09:42.476Z,32.98
2019-03-06T02:12:12.049Z,32.95
2019-03-06T02:14:43.456Z,34.70
2019-03-06T02:17:13.189Z,33.63
2019-03-06T02:19:42.918Z,32.83
2019-03-06T02:22:12.543Z,34.30
2019-03-06T02:24:42.177Z,30.67
2019-03-06T02:27:12.928Z,32.58
2019-03-06T02:29:42.555Z,32.88
2019-03-06T02:32:12.905Z,31.80
2019-03-06T02:34:42.630Z,32.38
2019-03-06T02:37:12.256Z,29.85
2019-03-06T02:39:41.882Z,30.00
2019-03-06T02:42:11.618Z,37.90
2019-03-06T02:44:41.241Z,33.40
2019-03-06T02:47:11.794Z,34.70
2019-03-06T02:52:10.641Z,30.10
2019-03-06T02:54:40.268Z,34.40
2019-03-06T02:57:10.921Z,32.30
2019-03-06T02:59:42.045Z,32.05
2019-03-06T03:02:13.243Z,29.18
2019-03-06T03:04:53.295Z,30.95
2019-03-06T03:07:23.031Z,38.10
2019-03-06T03:09:52.766Z,45.93
2019-03-06T03:12:22.488Z,42.83
2019-03-06T03:14:52.321Z,35.35
2019-03-06T03:17:22.023Z,34.65
2019-03-06T03:19:51.885Z,32.45
2019-03-06T03:22:21.735Z,35.90
2019-03-06T03:24:52.370Z,34.15
2019-03-06T03:27:22.045Z,34.45
2019-03-06T03:29:51.724Z,36.80
2019-03-06T03:32:21.458Z,40.98
2019-03-06T03:34:51.204Z,40.73
2019-03-06T03:37:20.817Z,42.10
2019-03-06T03:39:50.461Z,40.12
2019-03-06T03:42:20.059Z,44.03
2019-03-06T03:47:19.851Z,42.53
2019-03-06T03:49:50.032Z,39.27
2019-03-06T03:52:19.806Z,38.08
2019-03-06T03:54:49.436Z,39.55
2019-03-06T03:57:19.068Z,37.90
2019-03-06T03:59:48.701Z,44.53
2019-03-06T04:02:19.450Z,38.85
2019-03-06T04:04:49.122Z,38.73
2019-03-06T04:07:18.617Z,43.93
2019-03-06T04:09:48.533Z,47.50
2019-03-06T04:12:18.379Z,47.60
2019-03-06T04:14:48.103Z,41.77
2019-03-06T04:17:17.839Z,46.02
2019-03-06T04:19:47.579Z,40.70
2019-03-06T04:22:17.288Z,44.48
2019-03-06T04:24:47.015Z,42.38
2019-03-06T04:27:16.747Z,45.63
2019-03-06T04:29:46.478Z,48.17
2019-03-06T04:32:16.103Z,41.85
2019-03-06T04:34:45.747Z,40.35
2019-03-06T04:37:15.262Z,47.80
2019-03-06T04:39:44.990Z,38.70
2019-03-06T04:42:16.167Z,41.53
2019-03-06T04:44:45.784Z,40.27
2019-03-06T04:47:15.512Z,46.75
2019-03-06T04:49:52.437Z,50.10
2019-03-06T04:52:16.615Z,53.30
2019-03-06T04:54:46.238Z,55.70
2019-03-06T04:57:16.068Z,52.08
2019-03-06T04:59:46.096Z,52.58
2019-03-06T05:02:15.731Z,58.78
2019-03-06T05:04:45.267Z,51.43
2019-03-06T05:07:14.883Z,55.67
2019-03-06T05:09:44.526Z,51.67
2019-03-06T05:12:14.066Z,41.13
2019-03-06T05:14:44.993Z,50.00
2019-03-06T05:17:16.160Z,40.05
2019-03-06T05:19:46.910Z,42.15
2019-03-06T05:22:16.536Z,47.95
2019-03-06T05:24:46.096Z,40.75
2019-03-06T05:27:15.894Z,42.70
2019-03-06T05:29:45.429Z,39.13
2019-03-06T05:32:32.340Z,42.80
2019-03-06T05:35:10.720Z,41.18
2019-03-06T05:37:52.176Z,37.70
2019-03-06T05:40:22.911Z,44.25
2019-03-06T05:42:53.559Z,33.58
2019-03-06T05:45:23.281Z,32.30
2019-03-06T05:47:53.017Z,36.17
2019-03-06T05:50:22.744Z,36.03
2019-03-06T05:52:52.476Z,35.10
2019-03-06T05:55:22.130Z,34.15
2019-03-06T05:57:51.935Z,30.97
2019-03-06T06:00:26.573Z,34.27
2019-03-06T06:02:56.328Z,26.65
2019-03-06T06:05:32.250Z,28.42
2019-03-06T06:08:06.324Z,30.95
2019-03-06T06:10:42.600Z,35.33
2019-03-06T06:13:12.437Z,30.53
2019-03-06T06:15:42.455Z,36.33
2019-03-06T06:18:12.426Z,40.90
2019-03-06T06:20:42.915Z,39.80
2019-03-06T06:23:32.852Z,44.80
2019-03-06T06:26:05.392Z,35.98
2019-03-06T06:28:39.315Z,39.33
2019-03-06T06:31:09.668Z,33.20
2019-03-06T06:33:46.332Z,29.72
2019-03-06T06:36:16.385Z,31.68
2019-03-06T06:38:46.871Z,28.87
2019-03-06T06:41:20.362Z,33.55
2019-03-06T06:43:50.900Z,32.08
2019-03-06T06:46:22.739Z,35.25
2019-03-06T06:48:52.403Z,34.95
2019-03-06T06:51:35.593Z,31.80
2019-03-06T06:54:11.742Z,33.95
2019-03-06T06:56:47.367Z,38.30
2019-03-06T06:59:23.336Z,36.93
2019-03-06T07:02:21.840Z,34.55
2019-03-06T07:05:24.552Z,35.58
2019-03-06T07:08:07.384Z,37.25
2019-03-06T07:10:47.247Z,38.60
2019-03-06T07:13:18.505Z,35.38
2019-03-06T07:15:49.890Z,26.42
2019-03-06T07:18:23.815Z,28.70
2019-03-06T07:21:07.237Z,30.15
2019-03-06T07:23:38.395Z,29.92
2019-03-06T07:26:09.666Z,34.33
2019-03-06T07:28:41.386Z,30.88
2019-03-06T07:31:15.564Z,29.75
2019-03-06T07:33:49.750Z,29.57
2019-03-06T07:36:37.422Z,19.25
2019-03-06T07:39:09.505Z,29.90
2019-03-06T07:41:40.872Z,24.67
2019-03-06T07:44:12.238Z,24.27
2019-03-06T07:47:02.117Z,27.95
2019-03-06T07:49:44.673Z,21.07
2019-03-06T07:52:12.218Z,25.20
2019-03-06T07:54:46.135Z,24.87
2019-03-06T07:57:17.499Z,23.52
2019-03-06T07:59:47.231Z,25.02
2019-03-06T08:02:30.901Z,27.25
2019-03-06T08:05:00.806Z,24.20
2019-03-06T08:07:30.543Z,26.80
2019-03-06T08:10:00.538Z,28.77
2019-03-06T08:12:33.177Z,25.23
2019-03-06T08:15:04.432Z,22.58
2019-03-06T08:17:47.870Z,17.10
2019-03-06T08:20:25.370Z,19.95
2019-03-06T08:22:56.634Z,17.32
2019-03-06T08:25:36.921Z,19.23
2019-03-06T08:28:06.639Z,14.93
2019-03-06T08:30:37.806Z,21.00
2019-03-06T08:33:07.520Z,23.32
2019-03-06T08:35:37.256Z,21.45
2019-03-06T08:38:06.880Z,28.63
2019-03-06T08:40:36.616Z,23.27
2019-03-06T08:43:06.347Z,28.60
2019-03-06T08:45:54.207Z,20.17
2019-03-06T08:48:37.402Z,21.85
2019-03-06T08:51:14.741Z,19.92
2019-03-06T08:53:49.153Z,17.15
2019-03-06T08:56:32.368Z,15.78
2019-03-06T08:59:15.598Z,15.15
2019-03-06T09:01:46.963Z,20.12
2019-03-06T09:04:27.457Z,17.27
2019-03-06T09:07:01.560Z,24.35
2019-03-06T09:09:35.998Z,26.77
2019-03-06T09:12:25.781Z,23.47
2019-03-06T09:15:11.976Z,23.30
2019-03-06T09:17:43.345Z,21.20
2019-03-06T09:20:17.711Z,21.85
2019-03-06T09:22:49.034Z,21.50
2019-03-06T09:25:32.376Z,22.93
2019-03-06T09:28:09.571Z,22.62
2019-03-06T09:30:42.773Z,19.20
2019-03-06T09:33:20.384Z,22.02
2019-03-06T09:36:01.866Z,14.63
2019-03-06T09:38:48.576Z,17.57
2019-03-06T09:41:25.671Z,17.15
2019-03-06T09:43:57.033Z,12.43
2019-03-06T09:46:31.165Z,11.30
2019-03-06T09:49:14.409Z,11.55
2019-03-06T09:51:45.760Z,13.95
2019-03-06T09:54:32.267Z,13.20
2019-03-06T09:57:12.734Z,8.63
2019-03-06T10:00:00.318Z,8.00
2019-03-06T10:02:48.243Z,11.20
2019-03-06T10:05:25.390Z,15.55
2019-03-06T10:07:56.658Z,10.20
2019-03-06T10:10:31.003Z,12.65
2019-03-06T10:13:21.394Z,11.33
2019-03-06T10:15:52.750Z,11.65
2019-03-06T10:18:30.046Z,15.05
2019-03-06T10:20:59.982Z,15.50
2019-03-06T10:23:29.617Z,12.80
2019-03-06T10:25:59.438Z,10.93
2019-03-06T10:28:29.236Z,19.27
2019-03-06T10:31:02.336Z,9.38
2019-03-06T10:33:30.473Z,14.85
2019-03-06T10:36:00.654Z,13.95
2019-03-06T10:38:30.544Z,12.90
2019-03-06T10:41:00.594Z,9.35
2019-03-06T10:43:30.422Z,8.00
2019-03-06T10:46:00.258Z,11.33
2019-03-06T10:48:29.942Z,8.73
2019-03-06T10:50:59.601Z,9.00
2019-03-06T10:53:29.231Z,10.32
2019-03-06T10:55:58.967Z,17.23
2019-03-06T10:58:29.101Z,16.00
2019-03-06T11:00:58.841Z,10.20
2019-03-06T11:03:38.998Z,12.75
2019-03-06T11:06:09.037Z,12.28
2019-03-06T11:08:38.773Z,10.70
2019-03-06T11:11:09.412Z,8.25
2019-03-06T11:13:39.038Z,11.30
2019-03-06T11:16:09.179Z,13.10
2019-03-06T11:18:39.477Z,12.60
2019-03-06T11:21:09.253Z,13.48
2019-03-06T11:23:38.961Z,10.40
2019-03-06T11:26:08.713Z,11.60
2019-03-06T11:28:39.973Z,13.70
2019-03-06T11:31:09.757Z,14.13
2019-03-06T11:33:40.767Z,13.43
2019-03-06T11:36:10.540Z,12.10
2019-03-06T11:38:40.262Z,10.60
2019-03-06T11:41:09.959Z,12.88
2019-03-06T11:43:40.714Z,12.43
2019-03-06T11:46:10.949Z,13.60
2019-03-06T11:48:41.926Z,13.88
2019-03-06T11:51:11.558Z,11.55
2019-03-06T11:53:41.182Z,14.70
2019-03-06T11:56:10.909Z,10.48
2019-03-06T11:58:40.663Z,8.78
2019-03-06T12:01:13.273Z,8.05
2019-03-06T12:03:42.964Z,9.85
2019-03-06T12:06:12.845Z,15.55
2019-03-06T12:08:45.773Z,16.90
2019-03-06T12:11:14.264Z,9.20
2019-03-06T12:13:44.057Z,13.95
2019-03-06T12:16:15.696Z,9.08
2019-03-06T12:18:45.528Z,10.45
2019-03-06T12:21:15.411Z,7.97
2019-03-06T12:23:45.210Z,9.15
2019-03-06T12:26:14.996Z,10.20
2019-03-06T12:28:44.856Z,13.88
2019-03-06T12:31:14.580Z,8.83
2019-03-06T12:33:44.416Z,11.05
2019-03-06T12:36:14.046Z,10.50
2019-03-06T12:38:43.781Z,13.00
2019-03-06T12:41:14.329Z,9.68
2019-03-06T12:43:44.803Z,9.10
2019-03-06T12:46:23.790Z,8.45
2019-03-06T12:48:57.300Z,9.75
2019-03-06T12:51:27.173Z,11.33
2019-03-06T12:53:56.898Z,19.02
2019-03-06T12:56:26.462Z,10.68
2019-03-06T12:58:56.246Z,10.13
2019-03-06T13:01:27.435Z,8.73
2019-03-06T13:03:57.244Z,12.37
2019-03-06T13:06:26.865Z,9.03
2019-03-06T13:08:56.667Z,13.85
2019-03-06T13:11:26.537Z,10.48
2019-03-06T13:13:56.172Z,12.33
2019-03-06T13:16:26.002Z,13.43
2019-03-06T13:18:55.820Z,9.60
2019-03-06T13:21:25.554Z,9.65
2019-03-06T13:23:56.342Z,5.60
2019-03-06T13:26:26.138Z,9.65
2019-03-06T13:28:57.662Z,10.53
2019-03-06T13:31:27.170Z,9.45
2019-03-06T13:34:05.556Z,9.13
2019-03-06T13:36:35.182Z,6.75
2019-03-06T13:39:06.776Z,8.18
2019-03-06T13:41:38.428Z,6.90
2019-03-06T13:44:08.155Z,8.33
2019-03-06T13:46:37.894Z,9.40
2019-03-06T13:49:07.512Z,7.33
2019-03-06T13:51:37.195Z,10.35
2019-03-06T13:54:06.955Z,8.70
2019-03-06T13:56:38.478Z,14.70
2019-03-06T13:59:08.076Z,8.78
2019-03-06T14:01:38.113Z,9.00
2019-03-06T14:04:07.738Z,12.13
2019-03-06T14:06:37.606Z,13.57
2019-03-06T14:09:08.015Z,9.98
2019-03-06T14:11:39.187Z,13.30
2019-03-06T14:14:08.918Z,14.73
2019-03-06T14:16:38.743Z,18.17
2019-03-06T14:19:08.373Z,21.17
2019-03-06T14:21:38.209Z,17.20
2019-03-06T14:24:08.448Z,18.02
2019-03-06T14:26:38.280Z,15.55
2019-03-06T14:29:07.913Z,12.47
2019-03-06T14:31:37.634Z,11.93
2019-03-06T14:34:08.392Z,12.98
2019-03-06T14:36:38.129Z,13.87
2019-03-06T14:39:14.292Z,19.53
2019-03-06T14:41:43.928Z,14.38
2019-03-06T14:44:13.655Z,18.87
2019-03-06T14:46:43.289Z,19.13
2019-03-06T14:49:13.109Z,21.82
2019-03-06T14:51:42.957Z,22.07
2019-03-06T14:54:12.900Z,23.02
2019-03-06T14:56:42.712Z,29.48
2019-03-06T14:59:12.352Z,20.33
2019-03-06T15:01:41.955Z,18.45
2019-03-06T15:04:11.603Z,18.27
2019-03-06T15:06:41.320Z,20.37
2019-03-06T15:09:20.567Z,21.07
2019-03-06T15:11:50.199Z,23.27
2019-03-06T15:14:19.826Z,28.67
2019-03-06T15:16:49.566Z,20.57
2019-03-06T15:19:19.487Z,21.40
2019-03-06T15:21:49.330Z,28.57
2019-03-06T15:24:19.051Z,22.48
2019-03-06T15:26:48.784Z,25.37
2019-03-06T15:29:18.409Z,18.35
2019-03-06T15:31:48.140Z,22.93
2019-03-06T15:34:17.768Z,22.20
2019-03-06T15:36:48.735Z,28.87
2019-03-06T15:39:24.602Z,19.50
2019-03-06T15:42:00.292Z,23.20
2019-03-06T15:44:25.691Z,21.55
2019-03-06T15:46:56.457Z,27.70
2019-03-06T15:49:26.045Z,30.57
2019-03-06T15:52:01.784Z,18.77
2019-03-06T15:54:32.700Z,22.20
2019-03-06T15:57:02.729Z,26.97
2019-03-06T15:59:32.459Z,25.05
2019-03-06T16:02:01.991Z,27.17
2019-03-06T16:04:31.712Z,28.17
2019-03-06T16:07:01.336Z,23.00
2019-03-06T16:09:31.071Z,28.40
2019-03-06T16:12:00.704Z,30.43
2019-03-06T16:14:30.328Z,26.80
2019-03-06T16:17:00.257Z,27.62
2019-03-06T16:19:29.988Z,24.18
2019-03-06T16:21:59.820Z,29.97
2019-03-06T16:24:29.860Z,51.20
2019-03-06T16:26:59.493Z,54.77
2019-03-06T16:29:29.141Z,53.02
2019-03-06T16:31:58.859Z,46.25
2019-03-06T16:34:28.790Z,42.90
2019-03-06T16:36:58.628Z,42.17
2019-03-06T16:39:28.559Z,38.30
2019-03-06T16:41:58.292Z,39.67
2019-03-06T16:44:28.138Z,40.77
2019-03-06T16:47:06.436Z,42.67
2019-03-06T16:49:29.314Z,38.10
2019-03-06T16:51:59.150Z,40.65
2019-03-06T16:54:28.879Z,44.67
2019-03-06T16:56:58.612Z,38.37
2019-03-06T16:59:29.867Z,42.50
2019-03-06T17:01:59.712Z,46.08
2019-03-06T17:04:29.640Z,35.08
2019-03-06T17:06:59.372Z,56.67
2019-03-06T17:09:29.210Z,47.27
2019-03-06T17:11:58.944Z,60.88
2019-03-06T17:14:28.658Z,79.00
2019-03-06T17:16:58.392Z,86.00
2019-03-06T17:19:28.084Z,82.08
2019-03-06T17:21:57.846Z,84.07
2019-03-06T17:24:27.489Z,87.43
2019-03-06T17:26:57.243Z,84.40
2019-03-06T17:29:27.732Z,88.55
2019-03-06T17:34:28.865Z,78.97
2019-03-06T17:36:58.481Z,79.07
2019-03-06T17:39:28.322Z,78.70
2019-03-06T17:41:58.045Z,79.03
2019-03-06T17:44:30.536Z,75.47
2019-03-06T17:47:00.270Z,79.72
2019-03-06T17:49:30.622Z,87.70
2019-03-06T17:52:00.455Z,84.47
2019-03-06T17:54:30.072Z,84.17
2019-03-06T17:56:59.809Z,75.77
2019-03-06T17:59:30.104Z,84.17
2019-03-06T18:01:59.770Z,77.78
2019-03-06T18:04:30.010Z,81.22
2019-03-06T18:06:59.538Z,72.32
2019-03-06T18:09:29.279Z,81.60
2019-03-06T18:11:59.210Z,76.05
2019-03-06T18:14:28.934Z,81.47
2019-03-06T18:16:58.844Z,81.60
2019-03-06T18:19:28.441Z,83.17
2019-03-06T18:21:58.130Z,106.60
2019-03-06T18:24:28.055Z,80.57
2019-03-06T18:26:57.952Z,91.12
2019-03-06T18:29:29.129Z,85.28
2019-03-06T18:31:59.595Z,83.05
2019-03-06T18:34:29.651Z,151.87
2019-03-06T18:37:00.704Z,184.72
2019-03-06T18:39:30.949Z,351.48
2019-03-06T18:42:00.785Z,169.55
2019-03-06T18:44:30.533Z,235.30
2019-03-06T18:47:00.342Z,265.40
2019-03-06T18:49:31.296Z,264.40
2019-03-06T18:52:01.038Z,238.10
2019-03-06T18:54:31.071Z,178.72
2019-03-06T18:57:00.792Z,164.77
2019-03-06T18:59:30.540Z,143.60
2019-03-06T19:02:01.871Z,122.83
2019-03-06T19:04:36.013Z,122.90
2019-03-06T19:07:06.053Z,127.00
2019-03-06T19:09:35.786Z,136.22
2019-03-06T19:12:05.617Z,148.70
2019-03-06T19:14:38.232Z,163.90
2019-03-06T19:17:08.050Z,214.68
2019-03-06T19:19:39.526Z,239.12
2019-03-06T19:22:09.346Z,101.62
2019-03-06T19:24:39.276Z,147.50
2019-03-06T19:27:09.945Z,138.45
2019-03-06T19:29:39.963Z,116.85
2019-03-06T19:32:10.315Z,103.38
2019-03-06T19:34:40.450Z,105.20
2019-03-06T19:37:10.194Z,94.72
2019-03-06T19:39:39.673Z,88.17
2019-03-06T19:42:09.561Z,66.63
2019-03-06T19:44:39.150Z,64.47
2019-03-06T19:47:10.970Z,57.03
2019-03-06T19:49:42.520Z,55.05
2019-03-06T19:52:12.244Z,46.65
2019-03-06T19:54:42.101Z,57.70
2019-03-06T19:57:13.445Z,44.03
2019-03-06T19:59:43.274Z,48.17
2019-03-06T20:02:13.099Z,45.90
2019-03-06T20:04:42.943Z,44.03
2019-03-06T20:07:12.494Z,40.87
2019-03-06T20:09:42.191Z,47.20
2019-03-06T20:12:11.881Z,40.75
2019-03-06T20:14:41.658Z,38.00
2019-03-06T20:17:11.387Z,29.95
2019-03-06T20:19:41.010Z,36.67
2019-03-06T20:22:10.633Z,34.27
2019-03-06T20:24:45.643Z,30.63
2019-03-06T20:27:15.217Z,36.38
2019-03-06T20:29:47.500Z,39.33
2019-03-06T20:32:17.265Z,40.30
2019-03-06T20:34:47.098Z,33.00
2019-03-06T20:37:16.794Z,33.30
2019-03-06T20:39:46.425Z,37.00
2019-03-06T20:42:16.435Z,35.53
2019-03-06T20:44:48.039Z,31.37
2019-03-06T20:47:17.661Z,29.07
2019-03-06T20:49:48.324Z,33.40
2019-03-06T20:52:18.141Z,31.97
2019-03-06T20:54:47.875Z,31.25
2019-03-06T20:57:18.601Z,33.53
2019-03-06T20:59:48.568Z,35.35
2019-03-06T21:02:20.229Z,36.13
2019-03-06T21:04:50.097Z,35.85
2019-03-06T21:07:19.899Z,40.38
2019-03-06T21:09:49.726Z,34.80
2019-03-06T21:12:19.466Z,35.15
2019-03-06T21:14:49.192Z,37.33
2019-03-06T21:17:18.922Z,37.28
2019-03-06T21:19:48.956Z,33.95
2019-03-06T21:22:18.701Z,34.73
2019-03-06T21:24:48.516Z,35.38
2019-03-06T21:27:18.154Z,36.10
2019-03-06T21:29:47.783Z,33.67
2019-03-06T21:32:17.507Z,36.30
2019-03-06T21:34:47.546Z,39.73
2019-03-06T21:37:17.370Z,32.93
2019-03-06T21:39:47.004Z,43.63
2019-03-06T21:42:16.559Z,34.27
2019-03-06T21:44:46.157Z,34.27
2019-03-06T21:47:15.806Z,31.95
2019-03-06T21:49:45.559Z,34.63
2019-03-06T21:52:15.261Z,36.93
2019-03-06T21:54:45.340Z,36.70
2019-03-06T21:57:15.115Z,31.42
2019-03-06T21:59:46.071Z,30.80
2019-03-06T22:02:15.917Z,30.68
2019-03-06T22:04:45.649Z,27.55
2019-03-06T22:07:15.566Z,28.73
2019-03-06T22:09:45.197Z,34.38
2019-03-06T22:12:14.927Z,28.03
2019-03-06T22:14:45.486Z,26.13
2019-03-06T22:17:15.406Z,26.45
2019-03-06T22:19:45.041Z,27.83
2019-03-06T22:22:16.109Z,24.23
2019-03-06T22:24:45.826Z,26.57
2019-03-06T22:27:15.457Z,23.10
2019-03-06T22:29:44.999Z,30.27
2019-03-06T22:32:14.507Z,27.73
2019-03-06T22:34:44.139Z,26.40
2019-03-06T22:37:13.770Z,23.60
2019-03-06T22:39:43.502Z,24.03
2019-03-06T22:42:13.116Z,27.07
2019-03-06T22:44:42.773Z,21.33
2019-03-06T22:47:12.512Z,23.67
2019-03-06T22:49:42.110Z,24.00
2019-03-06T22:52:12.959Z,22.80
2019-03-06T22:54:42.686Z,26.95
2019-03-06T22:57:12.429Z,23.07
2019-03-06T22:59:42.279Z,24.60
2019-03-06T23:02:11.889Z,27.43
2019-03-06T23:04:41.509Z,26.57
2019-03-06T23:07:11.755Z,26.60
2019-03-06T23:09:41.487Z,26.73
2019-03-06T23:12:14.387Z,27.37
2019-03-06T23:14:46.879Z,28.62
2019-03-06T23:17:16.500Z,27.58
2019-03-06T23:19:46.139Z,28.13
2019-03-06T23:22:15.860Z,22.83
2019-03-06T23:24:48.740Z,24.20
2019-03-06T23:27:18.188Z,29.75
2019-03-06T23:29:47.934Z,26.25
2019-03-06T23:32:17.544Z,24.87
2019-03-06T23:34:47.167Z,27.53
2019-03-06T23:37:16.900Z,29.33
2019-03-06T23:39:46.629Z,23.07
2019-03-06T23:42:16.153Z,21.15
2019-03-06T23:47:15.620Z,21.93
2019-03-06T23:49:46.062Z,21.63
2019-03-06T23:54:46.342Z,20.37
2019-03-06T23:57:15.973Z,18.70
2019-03-06T23:59:46.417Z,21.40
